Legend Of The Seas — C6SL5 — position and weather

sailwx.info

Track history (hours):
 
Tides and Currents Weather Stations Pressure Air Temp Water Temp Dewpoint Dewpoint Depression Visibility Wind Speed Wind Dir Waves Ship Positions

Legend Of The Seas

Operator: Royal Caribbean Cruises Ltd

Last reported at 2017-Jul-21 00:17 UTC. Time now 2017-Jul-21 02:34 UTC.
Position N 40°10' E 000°45'.

Type: Passenger vessel. MMSI: 311378000.

Date/timePositionNaut miles runAvg speedWind from/ knotsBaromVisibWave heightAir tempDewpointWater temp
2017-Jul-21 00:17N 40°10' E 000°45'615.0
2017-Jul-20 23:55N 40°13' E 000°51'614.8
2017-Jul-20 23:30N 40°16' E 000°58'714.1
2017-Jul-20 23:00N 40°20' E 001°06'714.2
2017-Jul-20 22:30N 40°25' E 001°13'714.2
2017-Jul-20 22:00N 40°29' E 001°20'714.2
2017-Jul-20 21:30N 40°33' E 001°28'714.2
2017-Jul-20 21:00N 40°38' E 001°35'714.2
2017-Jul-20 20:30N 40°44' E 001°40'714.5
2017-Jul-20 20:00N 40°49' E 001°46'814.8
2017-Jul-20 19:29N 40°56' E 001°52'714.9
2017-Jul-20 19:00N 41°01' E 001°58'815.1
2017-Jul-20 18:30N 41°07' E 002°04'815.2
2017-Jul-20 18:00N 41°14' E 002°09'811.2
2017-Jul-20 17:20N 41°21' E 002°10'1 1.0
2017-Jul-20 16:49N 41°22' E 002°11'0 0.0
2017-Jul-20 16:26N 41°22' E 002°11'0 0.0
2017-Jul-20 15:58N 41°22' E 002°11'0 0.0
2017-Jul-20 15:22N 41°22' E 002°11'0 0.0
2017-Jul-20 14:58N 41°22' E 002°11'0 0.0
2017-Jul-20 13:55N 41°22' E 002°11'0 0.0
2017-Jul-20 07:29N 41°22' E 002°11'2 4.6
2017-Jul-20 06:59N 41°20' E 002°10'610.6
2017-Jul-20 06:23N 41°17' E 002°18'615.9
2017-Jul-20 05:59N 41°19' E 002°25'1716.6
2017-Jul-20 04:57N 41°26' E 002°46'6118.3
2017-Jul-20 01:38N 41°46' E 004°03'318.9
2017-Jul-20 01:28N 41°46' E 004°07'918.9
2017-Jul-20 01:00N 41°48' E 004°18'917.9
2017-Jul-20 00:30N 41°53' E 004°29'1019.5
2017-Jul-20 00:00N 42°02' E 004°34'918.6
2017-Jul-19 23:31N 42°08' E 004°43'1020.3
2017-Jul-19 23:00N 42°12' E 004°55'1121.5
2017-Jul-19 22:30N 42°17' E 005°08'1121.1
2017-Jul-19 22:00N 42°23' E 005°20'1020.8
2017-Jul-19 21:30N 42°25' E 005°34'1121.3
2017-Jul-19 21:00N 42°29' E 005°47'1121.5
2017-Jul-19 20:30N 42°34' E 006°00'1121.5
2017-Jul-19 20:00N 42°39' E 006°14'1121.4
2017-Jul-19 19:30N 42°43' E 006°27'1121.2
2017-Jul-19 19:00N 42°48' E 006°39'1121.6
2017-Jul-19 18:30N 42°56' E 006°50'1121.7
2017-Jul-19 18:00N 43°03' E 007°01'1121.6
2017-Jul-19 17:31N 43°11' E 007°12'1121.3
2017-Jul-19 17:00N 43°17' E 007°23'1121.3
2017-Jul-19 16:30N 43°24' E 007°34'1020.9
2017-Jul-19 16:00N 43°32' E 007°44'1019.5
2017-Jul-19 15:30N 43°42' E 007°45'712.3
2017-Jul-19 14:56N 43°49' E 007°48'0 0.0
2017-Jul-19 14:26N 43°49' E 007°48'0 0.0
2017-Jul-19 13:56N 43°49' E 007°48'0 0.0
2017-Jul-19 13:26N 43°49' E 007°48'0 0.0
2017-Jul-19 12:56N 43°49' E 007°48'0 0.0
2017-Jul-19 12:23N 43°49' E 007°48'0 0.0
2017-Jul-19 11:38N 43°49' E 007°48'0 0.1
2017-Jul-19 11:26N 43°49' E 007°48'0 0.0
2017-Jul-19 10:59N 43°49' E 007°48'0 0.0
2017-Jul-19 10:29N 43°49' E 007°48'0 0.1
2017-Jul-19 09:59N 43°49' E 007°48'0 0.0
2017-Jul-19 09:29N 43°49' E 007°48'0 0.0
2017-Jul-19 08:59N 43°49' E 007°48'0 0.0
2017-Jul-19 08:23N 43°49' E 007°48'0 0.2
2017-Jul-19 07:53N 43°48' E 007°48'0 0.1
2017-Jul-19 07:29N 43°48' E 007°48'0 0.0
2017-Jul-19 06:44N 43°48' E 007°48'0 0.1
2017-Jul-19 06:26N 43°48' E 007°48'0 0.0
2017-Jul-19 05:08N 43°48' E 007°48'0 0.0
2017-Jul-19 04:44N 43°48' E 007°48'0 0.1
2017-Jul-19 04:21N 43°48' E 007°48'5 8.1
2017-Jul-19 03:43N 43°44' E 007°46'411.0
2017-Jul-19 03:24N 43°40' E 007°45'410.9
2017-Jul-19 03:00N 43°36' E 007°44'510.5
2017-Jul-19 02:30N 43°31' E 007°41'510.4
2017-Jul-19 02:00N 43°28' E 007°35'510.7
2017-Jul-19 01:30N 43°24' E 007°30'510.6
2017-Jul-19 01:00N 43°20' E 007°25'510.4
2017-Jul-19 00:30N 43°16' E 007°21'510.1
2017-Jul-19 00:00N 43°12' E 007°16'510.6
2017-Jul-18 23:30N 43°10' E 007°10'510.6
2017-Jul-18 23:00N 43°06' E 007°04'510.4
2017-Jul-18 22:30N 43°03' E 006°59'510.3
2017-Jul-18 22:00N 42°59' E 006°54'510.0
2017-Jul-18 21:30N 42°56' E 006°48'510.2
2017-Jul-18 21:00N 42°53' E 006°43'6 9.8
2017-Jul-18 20:25N 42°51' E 006°36'410.3
2017-Jul-18 20:00N 42°51' E 006°30'510.5
2017-Jul-18 19:30N 42°53' E 006°24'3 6.3
2017-Jul-18 19:00N 42°54' E 006°20'3 4.4
2017-Jul-18 18:22N 42°54' E 006°24'718.3
2017-Jul-18 18:00N 42°54' E 006°15'1020.0
2017-Jul-18 17:30N 42°54' E 006°01'1020.5
2017-Jul-18 17:00N 42°56' E 005°47'1020.7
2017-Jul-18 16:30N 43°01' E 005°34'1020.9
2017-Jul-18 16:01N 43°05' E 005°22'1020.0
2017-Jul-18 15:30N 43°14' E 005°15'7 0.7
2017-Jul-18 05:45N 43°21' E 005°20'0 1.9
2017-Jul-18 05:30N 43°21' E 005°19'4 8.6
2017-Jul-18 05:00N 43°19' E 005°14'713.0
2017-Jul-18 04:30N 43°14' E 005°08'2417.0
2017-Jul-18 03:06N 42°54' E 004°51'416.5
2017-Jul-18 02:50N 42°50' E 004°49'1216.0
2017-Jul-18 02:04N 42°37' E 004°47'215.7
2017-Jul-18 01:55N 42°35' E 004°46'715.8
2017-Jul-18 01:30N 42°29' E 004°44'917.8
2017-Jul-18 01:00N 42°22' E 004°36'1222.3
2017-Jul-18 00:28N 42°18' E 004°21'1022.1
2017-Jul-18 00:00N 42°14' E 004°08'1020.8
2017-Jul-17 23:30N 42°08' E 003°57'1021.2
2017-Jul-17 23:00N 41°59' E 003°48'1121.2
2017-Jul-17 22:29N 41°51' E 003°39'1021.0
2017-Jul-17 22:00N 41°43' E 003°31'1121.3
2017-Jul-17 21:30N 41°34' E 003°22'1121.2
2017-Jul-17 21:00N 41°26' E 003°13'1121.2
2017-Jul-17 20:30N 41°18' E 003°04'1121.5
2017-Jul-17 20:00N 41°09' E 002°55'1121.5
2017-Jul-17 19:30N 41°00' E 002°48'1121.5
2017-Jul-17 19:00N 40°52' E 002°39'1121.6
2017-Jul-17 18:30N 40°43' E 002°30'1121.6
2017-Jul-17 18:00N 40°35' E 002°21'1121.7
2017-Jul-17 17:30N 40°27' E 002°12'1121.5
2017-Jul-17 17:00N 40°18' E 002°03'1121.2
2017-Jul-17 16:30N 40°10' E 001°55'1121.5
2017-Jul-17 16:00N 39°60' E 001°50'1121.1
2017-Jul-17 15:30N 39°50' E 001°44'1121.2
2017-Jul-17 15:00N 39°46' E 001°31'1121.2
2017-Jul-17 14:30N 39°38' E 001°22'1721.4
2017-Jul-17 13:44N 39°25' E 001°09'521.5
2017-Jul-17 13:29N 39°21' E 001°05'1021.3
2017-Jul-17 13:00N 39°12' E 000°57'2021.4
2017-Jul-17 12:04N 38°57' E 000°41'121.5
2017-Jul-17 12:00N 38°56' E 000°40'5921.4
2017-Jul-17 09:14N 38°06' W 000°02'1521.1
2017-Jul-17 08:30N 37°53' W 000°12'1021.0
2017-Jul-17 08:00N 37°45' W 000°21'1121.2
2017-Jul-17 07:30N 37°36' W 000°27'1821.2
2017-Jul-17 06:40N 37°24' W 000°44'421.0
2017-Jul-17 06:30N 37°22' W 000°47'1020.9
2017-Jul-17 06:00N 37°16' W 000°58'  
2017-Jul-15 01:37N 35°52' W 006°03'112.0
2017-Jul-15 01:30N 35°52' W 006°05'3310.8
2017-Jul-14 22:28N 36°01' W 006°44'611.5
2017-Jul-14 21:57N 36°07' W 006°45'511.8
2017-Jul-14 21:30N 36°12' W 006°45'511.0
2017-Jul-14 21:00N 36°17' W 006°43'1911.0
2017-Jul-14 19:16N 36°30' W 006°26'56 3.6
2017-Jul-14 03:30N 36°30' W 007°36'816.8
2017-Jul-14 03:00N 36°28' W 007°46'917.1
2017-Jul-14 02:30N 36°27' W 007°57'1020.7
2017-Jul-14 02:00N 36°27' W 008°10'1121.9
2017-Jul-14 01:30N 36°30' W 008°23'1121.4
2017-Jul-14 01:00N 36°28' W 008°36'1121.1
2017-Jul-14 00:30N 36°26' W 008°49'1121.1
2017-Jul-14 00:01N 36°29' W 009°01'1120.9
2017-Jul-13 23:30N 36°32' W 009°14'1121.2
2017-Jul-13 23:00N 36°40' W 009°22'1021.0
2017-Jul-13 22:31N 36°48' W 009°31'1121.2
2017-Jul-13 22:00N 36°58' W 009°36'1021.1
2017-Jul-13 21:31N 37°08' W 009°36'1021.0
2017-Jul-13 21:01N 37°19' W 009°36'1121.0
2017-Jul-13 20:30N 37°29' W 009°34'1121.3
2017-Jul-13 20:01N 37°40' W 009°31'1121.4
2017-Jul-13 19:31N 37°50' W 009°30'1121.3
2017-Jul-13 19:00N 38°01' W 009°29'1121.3
2017-Jul-13 18:31N 38°12' W 009°28'1121.2
2017-Jul-13 18:00N 38°22' W 009°26'1121.5
2017-Jul-13 17:31N 38°33' W 009°24'1019.6
2017-Jul-13 17:01N 38°41' W 009°17'611.9
2017-Jul-13 16:30N 38°42' W 009°10'2 4.7
2017-Jul-13 16:01N 38°43' W 009°07'0 0.0
2017-Jul-13 15:28N 38°43' W 009°07'0 0.0
2017-Jul-13 14:58N 38°43' W 009°07'0 0.0
2017-Jul-13 14:28N 38°43' W 009°07'0 0.0
2017-Jul-13 13:58N 38°43' W 009°07'0 0.0
2017-Jul-13 13:28N 38°43' W 009°07'0 0.0
2017-Jul-13 12:58N 38°43' W 009°07'0 0.0
2017-Jul-13 12:28N 38°43' W 009°07'0 0.0
2017-Jul-13 11:58N 38°43' W 009°07'0 0.0
2017-Jul-13 11:22N 38°43' W 009°07'0 0.0
2017-Jul-13 10:58N 38°43' W 009°07'0 0.0
2017-Jul-13 10:28N 38°43' W 009°07'0 0.0
2017-Jul-13 09:52N 38°43' W 009°07'0 0.0
2017-Jul-13 09:28N 38°43' W 009°07'0 0.0
2017-Jul-13 08:55N 38°43' W 009°07'0 0.0
2017-Jul-13 08:28N 38°43' W 009°07'0 0.0
2017-Jul-13 07:55N 38°43' W 009°07'0 0.0
2017-Jul-13 07:28N 38°43' W 009°07'0 0.0
2017-Jul-13 06:55N 38°43' W 009°07'1 2.3
2017-Jul-13 06:30N 38°42' W 009°08'4 8.5
2017-Jul-13 06:00N 38°41' W 009°13'714.1
2017-Jul-13 05:30N 38°38' W 009°21'611.3
2017-Jul-13 05:00N 38°36' W 009°28'713.6
2017-Jul-13 04:31N 38°37' W 009°37'611.6
2017-Jul-13 04:01N 38°41' W 009°43'714.6
2017-Jul-13 03:31N 38°48' W 009°43'714.3
2017-Jul-13 03:01N 38°55' W 009°44'714.3
2017-Jul-13 02:31N 39°02' W 009°45'714.1
2017-Jul-13 02:00N 39°09' W 009°46'714.1
2017-Jul-13 01:30N 39°16' W 009°46'713.7
2017-Jul-13 01:00N 39°23' W 009°47'713.6
2017-Jul-13 00:30N 39°30' W 009°45'714.2
2017-Jul-13 00:01N 39°36' W 009°41'3314.8
2017-Jul-12 21:46N 40°07' W 009°25'3319.3
2017-Jul-12 20:03N 40°37' W 009°08'119.5
2017-Jul-12 19:59N 40°39' W 009°07'1419.5
2017-Jul-12 19:15N 40°51' W 008°59'519.4
2017-Jul-12 19:00N 40°55' W 008°55'1019.5
2017-Jul-12 18:30N 41°03' W 008°48'815.8
2017-Jul-12 18:00N 41°10' W 008°42'1 1.4
2017-Jul-12 17:29N 41°11' W 008°42'0 0.0
2017-Jul-12 16:50N 41°11' W 008°42'0 0.0
2017-Jul-12 16:26N 41°11' W 008°42'0 0.0
2017-Jul-12 15:59N 41°11' W 008°42'0 0.0
2017-Jul-12 13:26N 41°11' W 008°42'  
Track history (hours):
 
Tides and Currents Weather Stations Pressure Air Temp Water Temp Dewpoint Dewpoint Depression Visibility Wind Speed Wind Dir Waves Ship Positions

Legend Of The Seas

Operator: Royal Caribbean Cruises Ltd

Last reported at 2017-Jul-21 00:17 UTC. Time now 2017-Jul-21 02:34 UTC.
Position N 40°10' E 000°45'.

Type: Passenger vessel. MMSI: 311378000.

Date/timePositionNaut miles runAvg speedWind from/ knotsBaromVisibWave heightAir tempDewpointWater temp
2017-Jul-21 00:17N 40°10' E 000°45'615.0
2017-Jul-20 23:55N 40°13' E 000°51'614.8
2017-Jul-20 23:30N 40°16' E 000°58'714.1
2017-Jul-20 23:00N 40°20' E 001°06'714.2
2017-Jul-20 22:30N 40°25' E 001°13'714.2
2017-Jul-20 22:00N 40°29' E 001°20'714.2
2017-Jul-20 21:30N 40°33' E 001°28'714.2
2017-Jul-20 21:00N 40°38' E 001°35'714.2
2017-Jul-20 20:30N 40°44' E 001°40'714.5
2017-Jul-20 20:00N 40°49' E 001°46'814.8
2017-Jul-20 19:29N 40°56' E 001°52'714.9
2017-Jul-20 19:00N 41°01' E 001°58'815.1
2017-Jul-20 18:30N 41°07' E 002°04'815.2
2017-Jul-20 18:00N 41°14' E 002°09'811.2
2017-Jul-20 17:20N 41°21' E 002°10'1 1.0
2017-Jul-20 16:49N 41°22' E 002°11'0 0.0
2017-Jul-20 16:26N 41°22' E 002°11'0 0.0
2017-Jul-20 15:58N 41°22' E 002°11'0 0.0
2017-Jul-20 15:22N 41°22' E 002°11'0 0.0
2017-Jul-20 14:58N 41°22' E 002°11'0 0.0
2017-Jul-20 13:55N 41°22' E 002°11'0 0.0
2017-Jul-20 07:29N 41°22' E 002°11'2 4.6
2017-Jul-20 06:59N 41°20' E 002°10'610.6
2017-Jul-20 06:23N 41°17' E 002°18'615.9
2017-Jul-20 05:59N 41°19' E 002°25'1716.6
2017-Jul-20 04:57N 41°26' E 002°46'6118.3
2017-Jul-20 01:38N 41°46' E 004°03'318.9
2017-Jul-20 01:28N 41°46' E 004°07'918.9
2017-Jul-20 01:00N 41°48' E 004°18'917.9
2017-Jul-20 00:30N 41°53' E 004°29'1019.5
2017-Jul-20 00:00N 42°02' E 004°34'918.6
2017-Jul-19 23:31N 42°08' E 004°43'1020.3
2017-Jul-19 23:00N 42°12' E 004°55'1121.5
2017-Jul-19 22:30N 42°17' E 005°08'1121.1
2017-Jul-19 22:00N 42°23' E 005°20'1020.8
2017-Jul-19 21:30N 42°25' E 005°34'1121.3
2017-Jul-19 21:00N 42°29' E 005°47'1121.5
2017-Jul-19 20:30N 42°34' E 006°00'1121.5
2017-Jul-19 20:00N 42°39' E 006°14'1121.4
2017-Jul-19 19:30N 42°43' E 006°27'1121.2
2017-Jul-19 19:00N 42°48' E 006°39'1121.6
2017-Jul-19 18:30N 42°56' E 006°50'1121.7
2017-Jul-19 18:00N 43°03' E 007°01'1121.6
2017-Jul-19 17:31N 43°11' E 007°12'1121.3
2017-Jul-19 17:00N 43°17' E 007°23'1121.3
2017-Jul-19 16:30N 43°24' E 007°34'1020.9
2017-Jul-19 16:00N 43°32' E 007°44'1019.5
2017-Jul-19 15:30N 43°42' E 007°45'712.3
2017-Jul-19 14:56N 43°49' E 007°48'0 0.0
2017-Jul-19 14:26N 43°49' E 007°48'0 0.0
2017-Jul-19 13:56N 43°49' E 007°48'0 0.0
2017-Jul-19 13:26N 43°49' E 007°48'0 0.0
2017-Jul-19 12:56N 43°49' E 007°48'0 0.0
2017-Jul-19 12:23N 43°49' E 007°48'0 0.0
2017-Jul-19 11:38N 43°49' E 007°48'0 0.1
2017-Jul-19 11:26N 43°49' E 007°48'0 0.0
2017-Jul-19 10:59N 43°49' E 007°48'0 0.0
2017-Jul-19 10:29N 43°49' E 007°48'0 0.1
2017-Jul-19 09:59N 43°49' E 007°48'0 0.0
2017-Jul-19 09:29N 43°49' E 007°48'0 0.0
2017-Jul-19 08:59N 43°49' E 007°48'0 0.0
2017-Jul-19 08:23N 43°49' E 007°48'0 0.2
2017-Jul-19 07:53N 43°48' E 007°48'0 0.1
2017-Jul-19 07:29N 43°48' E 007°48'0 0.0
2017-Jul-19 06:44N 43°48' E 007°48'0 0.1
2017-Jul-19 06:26N 43°48' E 007°48'0 0.0
2017-Jul-19 05:08N 43°48' E 007°48'0 0.0
2017-Jul-19 04:44N 43°48' E 007°48'0 0.1
2017-Jul-19 04:21N 43°48' E 007°48'5 8.1
2017-Jul-19 03:43N 43°44' E 007°46'411.0
2017-Jul-19 03:24N 43°40' E 007°45'410.9
2017-Jul-19 03:00N 43°36' E 007°44'510.5
2017-Jul-19 02:30N 43°31' E 007°41'510.4
2017-Jul-19 02:00N 43°28' E 007°35'510.7
2017-Jul-19 01:30N 43°24' E 007°30'510.6
2017-Jul-19 01:00N 43°20' E 007°25'510.4
2017-Jul-19 00:30N 43°16' E 007°21'510.1
2017-Jul-19 00:00N 43°12' E 007°16'510.6
2017-Jul-18 23:30N 43°10' E 007°10'510.6
2017-Jul-18 23:00N 43°06' E 007°04'510.4
2017-Jul-18 22:30N 43°03' E 006°59'510.3
2017-Jul-18 22:00N 42°59' E 006°54'510.0
2017-Jul-18 21:30N 42°56' E 006°48'510.2
2017-Jul-18 21:00N 42°53' E 006°43'6 9.8
2017-Jul-18 20:25N 42°51' E 006°36'410.3
2017-Jul-18 20:00N 42°51' E 006°30'510.5
2017-Jul-18 19:30N 42°53' E 006°24'3 6.3
2017-Jul-18 19:00N 42°54' E 006°20'3 4.4
2017-Jul-18 18:22N 42°54' E 006°24'718.3
2017-Jul-18 18:00N 42°54' E 006°15'1020.0
2017-Jul-18 17:30N 42°54' E 006°01'1020.5
2017-Jul-18 17:00N 42°56' E 005°47'1020.7
2017-Jul-18 16:30N 43°01' E 005°34'1020.9
2017-Jul-18 16:01N 43°05' E 005°22'1020.0
2017-Jul-18 15:30N 43°14' E 005°15'7 0.7
2017-Jul-18 05:45N 43°21' E 005°20'0 1.9
2017-Jul-18 05:30N 43°21' E 005°19'4 8.6
2017-Jul-18 05:00N 43°19' E 005°14'713.0
2017-Jul-18 04:30N 43°14' E 005°08'2417.0
2017-Jul-18 03:06N 42°54' E 004°51'416.5
2017-Jul-18 02:50N 42°50' E 004°49'1216.0
2017-Jul-18 02:04N 42°37' E 004°47'215.7
2017-Jul-18 01:55N 42°35' E 004°46'715.8
2017-Jul-18 01:30N 42°29' E 004°44'917.8
2017-Jul-18 01:00N 42°22' E 004°36'1222.3
2017-Jul-18 00:28N 42°18' E 004°21'1022.1
2017-Jul-18 00:00N 42°14' E 004°08'1020.8
2017-Jul-17 23:30N 42°08' E 003°57'1021.2
2017-Jul-17 23:00N 41°59' E 003°48'1121.2
2017-Jul-17 22:29N 41°51' E 003°39'1021.0
2017-Jul-17 22:00N 41°43' E 003°31'1121.3
2017-Jul-17 21:30N 41°34' E 003°22'1121.2
2017-Jul-17 21:00N 41°26' E 003°13'1121.2
2017-Jul-17 20:30N 41°18' E 003°04'1121.5
2017-Jul-17 20:00N 41°09' E 002°55'1121.5
2017-Jul-17 19:30N 41°00' E 002°48'1121.5
2017-Jul-17 19:00N 40°52' E 002°39'1121.6
2017-Jul-17 18:30N 40°43' E 002°30'1121.6
2017-Jul-17 18:00N 40°35' E 002°21'1121.7
2017-Jul-17 17:30N 40°27' E 002°12'1121.5
2017-Jul-17 17:00N 40°18' E 002°03'1121.2
2017-Jul-17 16:30N 40°10' E 001°55'1121.5
2017-Jul-17 16:00N 39°60' E 001°50'1121.1
2017-Jul-17 15:30N 39°50' E 001°44'1121.2
2017-Jul-17 15:00N 39°46' E 001°31'1121.2
2017-Jul-17 14:30N 39°38' E 001°22'1721.4
2017-Jul-17 13:44N 39°25' E 001°09'521.5
2017-Jul-17 13:29N 39°21' E 001°05'1021.3
2017-Jul-17 13:00N 39°12' E 000°57'2021.4
2017-Jul-17 12:04N 38°57' E 000°41'121.5
2017-Jul-17 12:00N 38°56' E 000°40'5921.4
2017-Jul-17 09:14N 38°06' W 000°02'1521.1
2017-Jul-17 08:30N 37°53' W 000°12'1021.0
2017-Jul-17 08:00N 37°45' W 000°21'1121.2
2017-Jul-17 07:30N 37°36' W 000°27'1821.2
2017-Jul-17 06:40N 37°24' W 000°44'421.0
2017-Jul-17 06:30N 37°22' W 000°47'1020.9
2017-Jul-17 06:00N 37°16' W 000°58'  
2017-Jul-15 01:37N 35°52' W 006°03'112.0
2017-Jul-15 01:30N 35°52' W 006°05'3310.8
2017-Jul-14 22:28N 36°01' W 006°44'611.5
2017-Jul-14 21:57N 36°07' W 006°45'511.8
2017-Jul-14 21:30N 36°12' W 006°45'511.0
2017-Jul-14 21:00N 36°17' W 006°43'1911.0
2017-Jul-14 19:16N 36°30' W 006°26'56 3.6
2017-Jul-14 03:30N 36°30' W 007°36'816.8
2017-Jul-14 03:00N 36°28' W 007°46'917.1
2017-Jul-14 02:30N 36°27' W 007°57'1020.7
2017-Jul-14 02:00N 36°27' W 008°10'1121.9
2017-Jul-14 01:30N 36°30' W 008°23'1121.4
2017-Jul-14 01:00N 36°28' W 008°36'1121.1
2017-Jul-14 00:30N 36°26' W 008°49'1121.1
2017-Jul-14 00:01N 36°29' W 009°01'1120.9
2017-Jul-13 23:30N 36°32' W 009°14'1121.2
2017-Jul-13 23:00N 36°40' W 009°22'1021.0
2017-Jul-13 22:31N 36°48' W 009°31'1121.2
2017-Jul-13 22:00N 36°58' W 009°36'1021.1
2017-Jul-13 21:31N 37°08' W 009°36'1021.0
2017-Jul-13 21:01N 37°19' W 009°36'1121.0
2017-Jul-13 20:30N 37°29' W 009°34'1121.3
2017-Jul-13 20:01N 37°40' W 009°31'1121.4
2017-Jul-13 19:31N 37°50' W 009°30'1121.3
2017-Jul-13 19:00N 38°01' W 009°29'1121.3
2017-Jul-13 18:31N 38°12' W 009°28'1121.2
2017-Jul-13 18:00N 38°22' W 009°26'1121.5
2017-Jul-13 17:31N 38°33' W 009°24'1019.6
2017-Jul-13 17:01N 38°41' W 009°17'611.9
2017-Jul-13 16:30N 38°42' W 009°10'2 4.7
2017-Jul-13 16:01N 38°43' W 009°07'0 0.0
2017-Jul-13 15:28N 38°43' W 009°07'0 0.0
2017-Jul-13 14:58N 38°43' W 009°07'0 0.0
2017-Jul-13 14:28N 38°43' W 009°07'0 0.0
2017-Jul-13 13:58N 38°43' W 009°07'0 0.0
2017-Jul-13 13:28N 38°43' W 009°07'0 0.0
2017-Jul-13 12:58N 38°43' W 009°07'0 0.0
2017-Jul-13 12:28N 38°43' W 009°07'0 0.0
2017-Jul-13 11:58N 38°43' W 009°07'0 0.0
2017-Jul-13 11:22N 38°43' W 009°07'0 0.0
2017-Jul-13 10:58N 38°43' W 009°07'0 0.0
2017-Jul-13 10:28N 38°43' W 009°07'0 0.0
2017-Jul-13 09:52N 38°43' W 009°07'0 0.0
2017-Jul-13 09:28N 38°43' W 009°07'0 0.0
2017-Jul-13 08:55N 38°43' W 009°07'0 0.0
2017-Jul-13 08:28N 38°43' W 009°07'0 0.0
2017-Jul-13 07:55N 38°43' W 009°07'0 0.0
2017-Jul-13 07:28N 38°43' W 009°07'0 0.0
2017-Jul-13 06:55N 38°43' W 009°07'1 2.3
2017-Jul-13 06:30N 38°42' W 009°08'4 8.5
2017-Jul-13 06:00N 38°41' W 009°13'714.1
2017-Jul-13 05:30N 38°38' W 009°21'611.3
2017-Jul-13 05:00N 38°36' W 009°28'713.6
2017-Jul-13 04:31N 38°37' W 009°37'611.6
2017-Jul-13 04:01N 38°41' W 009°43'714.6
2017-Jul-13 03:31N 38°48' W 009°43'714.3
2017-Jul-13 03:01N 38°55' W 009°44'714.3
2017-Jul-13 02:31N 39°02' W 009°45'714.1
2017-Jul-13 02:00N 39°09' W 009°46'714.1
2017-Jul-13 01:30N 39°16' W 009°46'713.7
2017-Jul-13 01:00N 39°23' W 009°47'713.6
2017-Jul-13 00:30N 39°30' W 009°45'714.2
2017-Jul-13 00:01N 39°36' W 009°41'3314.8
2017-Jul-12 21:46N 40°07' W 009°25'3319.3
2017-Jul-12 20:03N 40°37' W 009°08'119.5
2017-Jul-12 19:59N 40°39' W 009°07'1419.5
2017-Jul-12 19:15N 40°51' W 008°59'519.4
2017-Jul-12 19:00N 40°55' W 008°55'1019.5
2017-Jul-12 18:30N 41°03' W 008°48'815.8
2017-Jul-12 18:00N 41°10' W 008°42'1 1.4
2017-Jul-12 17:29N 41°11' W 008°42'0 0.0
2017-Jul-12 16:50N 41°11' W 008°42'0 0.0
2017-Jul-12 16:26N 41°11' W 008°42'0 0.0
2017-Jul-12 15:59N 41°11' W 008°42'0 0.0
2017-Jul-12 13:26N 41°11' W 008°42'  

Dump ship's entire track history